Terminal Aerodrome Forecast
Issued by NWS Flagstaff, AZ

Home | Current Version | Previous Version | Text Only | Print | Product List | Glossary On
Versions: 1 2 3 4 5 6 7 8 9 10 11 12
000
FTUS45 KFGZ 161700
TAFINW
TAF
KINW 161735Z 1618/1718 10008KT P6SM SCT070 BKN120
     FM170000 14011KT P6SM VCSH SCT060 BKN110
     FM171200 11012KT P6SM OVC090 PROB30 1712/1718 4SM -TSRA
      BKN040CB=

USA.gov is the U.S. government's official web portal to all federal, state and local government web resources and services.